ADDS TAF Data INFO
IDs: Format: Raw Decoded Include METARs

Data at: 1935 UTC 17 Jul 2018

KDMA 171858Z AUTO 13010KT 10SM CLR 36/14 A3004 RMK AO2 SLP125 T03570138 $

TAF KDMA 171411Z 1714/1820 21009KT 9999 SCT100 QNH2999INS
  BECMG 1721/1722 14012G20KT 9999 VCTS BKN090CB QNH2997INS
  TEMPO 1723/1804 VRB30G40KT 6000 -TSRA
  BECMG 1804/1805 13009KT 9999 NSW SCT120 SCT170 QNH2999INS
  BECMG 1817/1818 32009KT 9999 BKN100 QNH3000INS TX39/1720Z TN22/1812Z